Time,TemperatureF,DewpointF,PressureIn,WindDirection,WindDirectionDegrees,WindSpeedMPH,WindSpeedGustMPH,Humidity,HourlyPrecipIn,Conditions,Clouds,dailyrainin,SolarRadiationWatts/m^2,SoftwareType,DateUTC
2013-01-01 00:00:00,39.6,36.3,30.27,ESE,109,0.0,0.0,88,0.00,,,0.00,0.0,WUHU216DAVISVP2,2013-01-01 08:00:00,
2013-01-01 00:05:00,39.6,36.3,30.27,ESE,109,0.0,0.0,88,0.00,,,0.00,0.0,WUHU216DAVISVP2,2013-01-01 08:05:00,
2013-01-01 00:10:00,39.7,36.4,30.27,ESE,109,1.0,1.0,88,0.00,,,0.00,0.0,WUHU216DAVISVP2,2013-01-01 08:10:00,
2013-01-01 00:15:00,39.8,36.5,30.27,ESE,109,1.0,2.0,88,0.00,,,0.00,0.0,WUHU216DAVISVP2,2013-01-01 08:15:00,
2013-01-01 00:20:00,39.7,36.4,30.27,ESE,109,1.0,2.0,88,0.00,,,0.00,0.0,WUHU216DAVISVP2,2013-01-01 08:20:00,
2013-01-01 00:25:00,39.5,36.2,30.26,ESE,109,0.0,2.0,88,0.00,,,0.00,0.0,WUHU216DAVISVP2,2013-01-01 08:25:00,
2013-01-01 00:30:00,39.6,36.3,30.26,ESE,109,2.0,3.0,88,0.00,,,0.00,0.0,WUHU216DAVISVP2,2013-01-01 08:30:00,
2013-01-01 00:35:00,39.8,36.5,30.26,ESE,109,2.0,3.0,88,0.00,,,0.00,0.0,WUHU216DAVISVP2,2013-01-01 08:35:00,
2013-01-01 00:40:00,40.1,36.5,30.26,ESE,109,2.0,3.0,87,0.00,,,0.00,0.0,WUHU216DAVISVP2,2013-01-01 08:40:00,
2013-01-01 00:45:00,40.4,36.8,30.25,ESE,109,2.0,3.0,87,0.00,,,0.00,0.0,WUHU216DAVISVP2,2013-01-01 08:45:00,
2013-01-01 00:50:00,40.5,36.9,30.25,ESE,109,3.0,3.0,87,0.00,,,0.00,0.0,WUHU216DAVISVP2,2013-01-01 08:50:00,
2013-01-01 00:55:00,40.7,37.1,30.25,ESE,109,1.0,3.0,87,0.00,,,0.00,0.0,WUHU216DAVISVP2,2013-01-01 08:55:00,
2013-01-01 01:00:00,40.7,36.8,30.25,ESE,109,2.0,4.0,86,0.00,,,0.00,0.0,WUHU216DAVISVP2,2013-01-01 09:00:00,
2013-01-01 01:05:00,40.8,36.9,30.25,ESE,109,3.0,4.0,86,0.00,,,0.00,0.0,WUHU216DAVISVP2,2013-01-01 09:05:00,
2013-01-01 01:10:00,40.9,37.0,30.25,ESE,109,2.0,4.0,86,0.00,,,0.00,0.0,WUHU216DAVISVP2,2013-01-01 09:10:00,
2013-01-01 01:15:00,40.9,37.0,30.25,ESE,109,0.0,4.0,86,0.00,,,0.00,0.0,WUHU216DAVISVP2,2013-01-01 09:15:00,
2013-01-01 01:20:00,40.9,37.0,30.24,ESE,109,0.0,4.0,86,0.00,,,0.00,0.0,WUHU216DAVISVP2,2013-01-01 09:20:00,
2013-01-01 01:26:00,40.8,36.9,30.24,ESE,109,0.0,4.0,86,0.00,,,0.00,0.0,WUHU216DAVISVP2,2013-01-01 09:26:00,
2013-01-01 01:31:00,40.8,36.9,30.25,ESE,109,0.0,3.0,86,0.00,,,0.00,0.0,WUHU216DAVISVP2,2013-01-01 09:31:00,
2013-01-01 01:36:00,40.8,36.9,30.25,ESE,109,0.0,3.0,86,0.00,,,0.00,0.0,WUHU216DAVISVP2,2013-01-01 09:36:00,
2013-01-01 01:41:00,40.8,36.9,30.25,ESE,109,0.0,2.0,86,0.00,,,0.00,0.0,WUHU216DAVISVP2,2013-01-01 09:41:00,
2013-01-01 01:46:00,40.9,37.0,30.24,ESE,109,0.0,2.0,86,0.00,,,0.00,0.0,WUHU216DAVISVP2,2013-01-01 09:46:00,
2013-01-01 01:51:00,40.9,37.0,30.23,ESE,109,2.0,2.0,86,0.00,,,0.00,0.0,WUHU216DAVISVP2,2013-01-01 09:51:00,
2013-01-01 01:56:00,40.9,37.0,30.23,ESE,109,0.0,2.0,86,0.00,,,0.00,0.0,WUHU216DAVISVP2,2013-01-01 09:56:00,
2013-01-01 02:00:00,40.9,37.3,30.23,ESE,109,0.0,2.0,87,0.00,,,0.00,0.0,WUHU216DAVISVP2,2013-01-01 10:00:00,
2013-01-01 02:05:00,40.9,37.3,30.23,ESE,109,0.0,2.0,87,0.00,,,0.00,0.0,WUHU216DAVISVP2,2013-01-01 10:05:00,
2013-01-01 02:10:00,40.8,37.2,30.23,ESE,109,0.0,2.0,87,0.00,,,0.00,0.0,WUHU216DAVISVP2,2013-01-01 10:10:00,
2013-01-01 02:15:00,40.7,37.1,30.23,ESE,109,0.0,2.0,87,0.00,,,0.00,0.0,WUHU216DAVISVP2,2013-01-01 10:15:00,
2013-01-01 02:21:00,40.7,37.1,30.23,ESE,109,0.0,2.0,87,0.00,,,0.00,0.0,WUHU216DAVISVP2,2013-01-01 10:21:00,
2013-01-01 02:26:00,40.7,37.1,30.22,ESE,109,0.0,2.0,87,0.00,,,0.00,0.0,WUHU216DAVISVP2,2013-01-01 10:26:00,
2013-01-01 02:31:00,40.7,37.1,30.22,ESE,109,0.0,1.0,87,0.00,,,0.00,0.0,WUHU216DAVISVP2,2013-01-01 10:31:00,
2013-01-01 02:36:00,40.6,37.0,30.22,ESE,109,0.0,1.0,87,0.00,,,0.00,0.0,WUHU216DAVISVP2,2013-01-01 10:36:00,
2013-01-01 02:41:00,40.6,37.0,30.22,ESE,109,0.0,1.0,87,0.00,,,0.00,0.0,WUHU216DAVISVP2,2013-01-01 10:41:00,
2013-01-01 02:46:00,40.6,37.3,30.21,ESE,109,0.0,2.0,88,0.00,,,0.00,0.0,WUHU216DAVISVP2,2013-01-01 10:46:00,
2013-01-01 02:51:00,40.5,37.2,30.21,ESE,109,2.0,2.0,88,0.00,,,0.00,0.0,WUHU216DAVISVP2,2013-01-01 10:51:00,
2013-01-01 02:56:00,40.4,37.1,30.21,ESE,109,2.0,3.0,88,0.00,,,0.00,0.0,WUHU216DAVISVP2,2013-01-01 10:56:00,
2013-01-01 03:01:00,40.4,37.1,30.21,ESE,109,0.0,3.0,88,0.00,,,0.00,0.0,WUHU216DAVISVP2,2013-01-01 11:01:00,
2013-01-01 03:06:00,40.3,37.0,30.21,ESE,109,3.0,3.0,88,0.00,,,0.00,0.0,WUHU216DAVISVP2,2013-01-01 11:06:00,
2013-01-01 03:11:00,40.4,36.8,30.21,ESE,109,1.0,3.0,87,0.00,,,0.00,0.0,WUHU216DAVISVP2,2013-01-01 11:11:00,
2013-01-01 03:16:00,40.2,36.6,30.21,ESE,109,2.0,4.0,87,0.00,,,0.00,0.0,WUHU216DAVISVP2,2013-01-01 11:16:00,
2013-01-01 03:21:00,40.1,36.5,30.21,ESE,109,0.0,4.0,87,0.00,,,0.00,0.0,WUHU216DAVISVP2,2013-01-01 11:21:00,
2013-01-01 03:26:00,40.0,36.7,30.21,ESE,109,0.0,4.0,88,0.00,,,0.00,0.0,WUHU216DAVISVP2,2013-01-01 11:26:00,
2013-01-01 03:31:00,39.9,36.6,30.21,ESE,109,0.0,4.0,88,0.00,,,0.00,0.0,WUHU216DAVISVP2,2013-01-01 11:31:00,
2013-01-01 03:36:00,39.7,36.4,30.21,ESE,109,0.0,2.0,88,0.00,,,0.00,0.0,WUHU216DAVISVP2,2013-01-01 11:36:00,
2013-01-01 03:41:00,39.6,36.3,30.21,ESE,109,0.0,1.0,88,0.00,,,0.00,0.0,WUHU216DAVISVP2,2013-01-01 11:41:00,
2013-01-01 03:46:00,39.2,35.9,30.21,ESE,109,0.0,0.0,88,0.00,,,0.00,0.0,WUHU216DAVISVP2,2013-01-01 11:46:00,
2013-01-01 03:51:00,38.9,35.9,30.21,ESE,109,0.0,0.0,89,0.00,,,0.00,0.0,WUHU216DAVISVP2,2013-01-01 11:51:00,
2013-01-01 03:56:00,38.7,35.7,30.20,ESE,109,0.0,0.0,89,0.00,,,0.00,0.0,WUHU216DAVISVP2,2013-01-01 11:56:00,
2013-01-01 04:01:00,38.4,35.4,30.20,ESE,109,0.0,0.0,89,0.00,,,0.00,0.0,WUHU216DAVISVP2,2013-01-01 12:01:00,
2013-01-01 04:06:00,38.1,35.1,30.20,ESE,109,0.0,0.0,89,0.00,,,0.00,0.0,WUHU216DAVISVP2,2013-01-01 12:06:00,
2013-01-01 04:11:00,37.9,35.2,30.20,ESE,109,0.0,0.0,90,0.00,,,0.00,0.0,WUHU216DAVISVP2,2013-01-01 12:11:00,
2013-01-01 04:16:00,37.5,34.8,30.20,ESE,109,0.0,0.0,90,0.00,,,0.00,0.0,WUHU216DAVISVP2,2013-01-01 12:16:00,
2013-01-01 04:21:00,37.3,34.6,30.21,ESE,109,0.0,0.0,90,0.00,,,0.00,0.0,WUHU216DAVISVP2,2013-01-01 12:21:00,
2013-01-01 04:26:00,37.2,34.8,30.21,ESE,109,0.0,2.0,91,0.00,,,0.00,0.0,WUHU216DAVISVP2,2013-01-01 12:26:00,
2013-01-01 04:31:00,37.0,34.6,30.22,ESE,109,2.0,2.0,91,0.00,,,0.00,0.0,WUHU216DAVISVP2,2013-01-01 12:31:00,
2013-01-01 04:36:00,37.0,34.6,30.22,ESE,109,2.0,2.0,91,0.00,,,0.00,0.0,WUHU216DAVISVP2,2013-01-01 12:36:00,
2013-01-01 04:41:00,37.0,34.8,30.22,ESE,109,1.0,3.0,92,0.00,,,0.00,0.0,WUHU216DAVISVP2,2013-01-01 12:41:00,
2013-01-01 04:46:00,36.9,34.7,30.22,ESE,109,0.0,3.0,92,0.00,,,0.00,0.0,WUHU216DAVISVP2,2013-01-01 12:46:00,
2013-01-01 04:51:00,36.6,34.2,30.22,ESE,109,0.0,3.0,91,0.00,,,0.00,0.0,WUHU216DAVISVP2,2013-01-01 12:51:00,
2013-01-01 04:56:00,36.1,33.7,30.22,ESE,109,0.0,3.0,91,0.00,,,0.00,0.0,WUHU216DAVISVP2,2013-01-01 12:56:00,
2013-01-01 05:01:00,35.9,33.8,30.22,ESE,109,1.0,2.0,92,0.00,,,0.00,0.0,WUHU216DAVISVP2,2013-01-01 13:01:00,
2013-01-01 05:06:00,36.0,34.1,30.22,ESE,109,1.0,2.0,93,0.00,,,0.00,0.0,WUHU216DAVISVP2,2013-01-01 13:06:00,
2013-01-01 05:11:00,36.0,34.1,30.22,ESE,109,1.0,2.0,93,0.00,,,0.00,0.0,WUHU216DAVISVP2,2013-01-01 13:11:00,
2013-01-01 05:16:00,35.5,33.4,30.22,ESE,109,0.0,2.0,92,0.00,,,0.00,0.0,WUHU216DAVISVP2,2013-01-01 13:16:00,
2013-01-01 05:21:00,35.6,33.7,30.22,ESE,109,0.0,2.0,93,0.00,,,0.00,0.0,WUHU216DAVISVP2,2013-01-01 13:21:00,
2013-01-01 05:26:00,36.0,34.4,30.22,ESE,109,0.0,2.0,94,0.00,,,0.00,0.0,WUHU216DAVISVP2,2013-01-01 13:26:00,
2013-01-01 05:31:00,35.8,33.9,30.22,ESE,109,0.0,2.0,93,0.00,,,0.00,0.0,WUHU216DAVISVP2,2013-01-01 13:31:00,
2013-01-01 05:36:00,35.5,33.6,30.22,ESE,109,0.0,0.0,93,0.00,,,0.00,0.0,WUHU216DAVISVP2,2013-01-01 13:36:00,
2013-01-01 05:41:00,35.2,33.1,30.22,ESE,109,0.0,0.0,92,0.00,,,0.00,0.0,WUHU216DAVISVP2,2013-01-01 13:41:00,
2013-01-01 05:46:00,35.0,33.1,30.22,ESE,109,0.0,0.0,93,0.00,,,0.00,0.0,WUHU216DAVISVP2,2013-01-01 13:46:00,
2013-01-01 05:51:00,34.8,32.9,30.22,ESE,109,0.0,0.0,93,0.00,,,0.00,0.0,WUHU216DAVISVP2,2013-01-01 13:51:00,
2013-01-01 05:56:00,34.7,32.8,30.22,ESE,109,0.0,0.0,93,0.00,,,0.00,0.0,WUHU216DAVISVP2,2013-01-01 13:56:00,
2013-01-01 06:01:00,34.5,32.6,30.22,ESE,109,2.0,2.0,93,0.00,,,0.00,0.0,WUHU216DAVISVP2,2013-01-01 14:01:00,
2013-01-01 06:06:00,34.3,32.4,30.22,ESE,109,1.0,2.0,93,0.00,,,0.00,0.0,WUHU216DAVISVP2,2013-01-01 14:06:00,
2013-01-01 06:11:00,34.5,32.9,30.23,ESE,109,3.0,3.0,94,0.00,,,0.00,0.0,WUHU216DAVISVP2,2013-01-01 14:11:00,
2013-01-01 06:16:00,34.8,33.2,30.23,ESE,109,1.0,3.0,94,0.00,,,0.00,0.0,WUHU216DAVISVP2,2013-01-01 14:16:00,
2013-01-01 06:21:00,35.1,33.8,30.23,ESE,109,1.0,3.0,95,0.00,,,0.00,0.0,WUHU216DAVISVP2,2013-01-01 14:21:00,
2013-01-01 06:26:00,35.2,33.6,30.23,ESE,109,1.0,3.0,94,0.00,,,0.00,0.0,WUHU216DAVISVP2,2013-01-01 14:26:00,
2013-01-01 06:31:00,35.3,33.7,30.23,ESE,109,2.0,3.0,94,0.00,,,0.00,0.0,WUHU216DAVISVP2,2013-01-01 14:31:00,
2013-01-01 06:36:00,35.4,34.1,30.23,ESE,109,2.0,3.0,95,0.00,,,0.00,0.0,WUHU216DAVISVP2,2013-01-01 14:36:00,
2013-01-01 06:41:00,35.6,34.3,30.24,ESE,109,2.0,3.0,95,0.00,,,0.00,0.0,WUHU216DAVISVP2,2013-01-01 14:41:00,
2013-01-01 06:46:00,35.7,34.4,30.23,ESE,109,2.0,3.0,95,0.00,,,0.00,0.0,WUHU216DAVISVP2,2013-01-01 14:46:00,
2013-01-01 06:51:00,35.9,34.6,30.24,ESE,109,0.0,3.0,95,0.00,,,0.00,0.0,WUHU216DAVISVP2,2013-01-01 14:51:00,
2013-01-01 06:56:00,36.0,34.7,30.24,ESE,109,0.0,3.0,95,0.00,,,0.00,0.0,WUHU216DAVISVP2,2013-01-01 14:56:00,
2013-01-01 07:01:00,36.1,34.5,30.24,ESE,109,0.0,3.0,94,0.00,,,0.00,0.0,WUHU216DAVISVP2,2013-01-01 15:01:00,
2013-01-01 07:06:00,36.1,34.5,30.24,ESE,109,0.0,2.0,94,0.00,,,0.00,0.0,WUHU216DAVISVP2,2013-01-01 15:06:00,
2013-01-01 07:11:00,36.2,34.6,30.24,ESE,109,1.0,2.0,94,0.00,,,0.00,0.0,WUHU216DAVISVP2,2013-01-01 15:11:00,
2013-01-01 07:16:00,36.3,34.7,30.24,ESE,109,1.0,2.0,94,0.00,,,0.00,5.0,WUHU216DAVISVP2,2013-01-01 15:16:00,
2013-01-01 07:21:00,36.5,34.9,30.24,ESE,109,2.0,3.0,94,0.00,,,0.00,9.0,WUHU216DAVISVP2,2013-01-01 15:21:00,
2013-01-01 07:26:00,36.6,35.0,30.24,ESE,109,0.0,3.0,94,0.00,,,0.00,14.0,WUHU216DAVISVP2,2013-01-01 15:26:00,
2013-01-01 07:31:00,36.7,35.1,30.24,ESE,109,0.0,3.0,94,0.00,,,0.00,18.0,WUHU216DAVISVP2,2013-01-01 15:31:00,
2013-01-01 07:36:00,36.8,35.2,30.24,ESE,109,0.0,3.0,94,0.00,,,0.00,23.0,WUHU216DAVISVP2,2013-01-01 15:36:00,
2013-01-01 07:41:00,37.0,35.4,30.24,ESE,109,0.0,2.0,94,0.00,,,0.00,28.0,WUHU216DAVISVP2,2013-01-01 15:41:00,
2013-01-01 07:46:00,37.1,35.5,30.24,ESE,109,0.0,1.0,94,0.00,,,0.00,32.0,WUHU216DAVISVP2,2013-01-01 15:46:00,
2013-01-01 07:51:00,37.2,35.6,30.23,ESE,109,0.0,1.0,94,0.00,,,0.00,37.0,WUHU216DAVISVP2,2013-01-01 15:51:00,
2013-01-01 07:56:00,37.4,35.8,30.23,ESE,109,0.0,1.0,94,0.00,,,0.00,42.0,WUHU216DAVISVP2,2013-01-01 15:56:00,
2013-01-01 08:01:00,37.5,35.9,30.23,ESE,109,0.0,1.0,94,0.00,,,0.00,49.0,WUHU216DAVISVP2,2013-01-01 16:01:00,
2013-01-01 08:06:00,37.5,35.6,30.23,ESE,109,0.0,1.0,93,0.00,,,0.00,58.0,WUHU216DAVISVP2,2013-01-01 16:06:00,
2013-01-01 08:11:00,37.7,35.8,30.23,ESE,109,0.0,1.0,93,0.00,,,0.00,70.0,WUHU216DAVISVP2,2013-01-01 16:11:00,
2013-01-01 08:16:00,37.9,36.0,30.24,ESE,109,0.0,1.0,93,0.00,,,0.00,76.0,WUHU216DAVISVP2,2013-01-01 16:16:00,
2013-01-01 08:21:00,38.0,36.1,30.24,ESE,109,0.0,0.0,93,0.00,,,0.00,72.0,WUHU216DAVISVP2,2013-01-01 16:21:00,
2013-01-01 08:26:00,38.2,36.3,30.24,ESE,109,0.0,0.0,93,0.00,,,0.00,77.0,WUHU216DAVISVP2,2013-01-01 16:26:00,
2013-01-01 08:31:00,38.5,36.6,30.24,ESE,109,0.0,2.0,93,0.00,,,0.00,88.0,WUHU216DAVISVP2,2013-01-01 16:31:00,
2013-01-01 08:36:00,38.6,36.7,30.24,ESE,109,1.0,2.0,93,0.00,,,0.00,88.0,WUHU216DAVISVP2,2013-01-01 16:36:00,
2013-01-01 08:41:00,38.8,36.9,30.24,ESE,109,0.0,2.0,93,0.00,,,0.00,91.0,WUHU216DAVISVP2,2013-01-01 16:41:00,
2013-01-01 08:46:00,39.0,36.8,30.24,ESE,109,0.0,2.0,92,0.00,,,0.00,98.0,WUHU216DAVISVP2,2013-01-01 16:46:00,
2013-01-01 08:51:00,39.4,37.2,30.25,ESE,109,1.0,1.0,92,0.00,,,0.00,105.0,WUHU216DAVISVP2,2013-01-01 16:51:00,
2013-01-01 08:56:00,39.6,37.4,30.25,ESE,109,0.0,2.0,92,0.00,,,0.00,123.0,WUHU216DAVISVP2,2013-01-01 16:56:00,
2013-01-01 09:01:00,39.8,37.3,30.25,ESE,109,0.0,2.0,91,0.00,,,0.00,120.0,WUHU216DAVISVP2,2013-01-01 17:01:00,
2013-01-01 09:06:00,40.2,37.7,30.25,ESE,109,0.0,2.0,91,0.00,,,0.00,190.0,WUHU216DAVISVP2,2013-01-01 17:06:00,
2013-01-01 09:11:00,40.6,38.1,30.25,ESE,109,0.0,2.0,91,0.00,,,0.00,239.0,WUHU216DAVISVP2,2013-01-01 17:11:00,
2013-01-01 09:16:00,41.2,38.4,30.26,ESE,109,0.0,1.0,90,0.00,,,0.00,276.0,WUHU216DAVISVP2,2013-01-01 17:16:00,
2013-01-01 09:21:00,41.8,38.8,30.26,ESE,109,0.0,0.0,89,0.00,,,0.00,339.0,WUHU216DAVISVP2,2013-01-01 17:21:00,
2013-01-01 09:26:00,42.5,38.9,30.26,ESE,109,0.0,0.0,87,0.00,,,0.00,367.0,WUHU216DAVISVP2,2013-01-01 17:26:00,
2013-01-01 09:31:00,44.0,40.1,30.26,ESE,109,0.0,0.0,86,0.00,,,0.00,390.0,WUHU216DAVISVP2,2013-01-01 17:31:00,
2013-01-01 09:36:00,44.7,39.9,30.26,ESE,109,0.0,1.0,83,0.00,,,0.00,214.0,WUHU216DAVISVP2,2013-01-01 17:36:00,
2013-01-01 09:41:00,45.4,40.2,30.26,ESE,109,0.0,2.0,82,0.00,,,0.00,213.0,WUHU216DAVISVP2,2013-01-01 17:41:00,
2013-01-01 09:46:00,45.5,40.0,30.26,ESE,109,0.0,2.0,81,0.00,,,0.00,195.0,WUHU216DAVISVP2,2013-01-01 17:46:00,
2013-01-01 09:51:00,45.6,39.8,30.26,ESE,109,0.0,2.0,80,0.00,,,0.00,197.0,WUHU216DAVISVP2,2013-01-01 17:51:00,
2013-01-01 09:56:00,45.4,39.6,30.26,ESE,109,1.0,2.0,80,0.00,,,0.00,338.0,WUHU216DAVISVP2,2013-01-01 17:56:00,
2013-01-01 10:01:00,45.5,39.7,30.26,ESE,109,0.0,3.0,80,0.00,,,0.00,427.0,WUHU216DAVISVP2,2013-01-01 18:01:00,
2013-01-01 10:06:00,45.8,40.0,30.26,ESE,114,1.0,4.0,80,0.00,,,0.00,422.0,WUHU216DAVISVP2,2013-01-01 18:06:00,
2013-01-01 10:11:00,46.3,40.2,30.26,ESE,114,0.0,4.0,79,0.00,,,0.00,422.0,WUHU216DAVISVP2,2013-01-01 18:11:00,
2013-01-01 10:16:00,47.2,40.4,30.26,ESE,114,0.0,4.0,77,0.00,,,0.00,432.0,WUHU216DAVISVP2,2013-01-01 18:16:00,
2013-01-01 10:21:00,47.5,40.0,30.26,WSW,252,4.0,4.0,75,0.00,,,0.00,436.0,WUHU216DAVISVP2,2013-01-01 18:21:00,
2013-01-01 10:26:00,47.3,40.2,30.26,WSW,251,0.0,4.0,76,0.00,,,0.00,436.0,WUHU216DAVISVP2,2013-01-01 18:26:00,
2013-01-01 10:31:00,47.3,40.5,30.26,WSW,244,4.0,5.0,77,0.00,,,0.00,438.0,WUHU216DAVISVP2,2013-01-01 18:31:00,
2013-01-01 10:36:00,47.4,40.9,30.26,West,259,1.0,5.0,78,0.00,,,0.00,443.0,WUHU216DAVISVP2,2013-01-01 18:36:00,
2013-01-01 10:41:00,47.5,40.6,30.25,WSW,251,1.0,5.0,77,0.00,,,0.00,443.0,WUHU216DAVISVP2,2013-01-01 18:41:00,
2013-01-01 10:46:00,47.6,40.8,30.25,West,261,3.0,5.0,77,0.00,,,0.00,446.0,WUHU216DAVISVP2,2013-01-01 18:46:00,
2013-01-01 10:51:00,47.6,40.5,30.25,WSW,254,3.0,4.0,76,0.00,,,0.00,438.0,WUHU216DAVISVP2,2013-01-01 18:51:00,
2013-01-01 10:56:00,47.7,40.2,30.25,West,275,3.0,5.0,75,0.00,,,0.00,459.0,WUHU216DAVISVP2,2013-01-01 18:56:00,
2013-01-01 11:01:00,48.0,40.5,30.25,WNW,290,1.0,5.0,75,0.00,,,0.00,464.0,WUHU216DAVISVP2,2013-01-01 19:01:00,
2013-01-01 11:06:00,48.6,41.0,30.25,WNW,288,3.0,5.0,75,0.00,,,0.00,475.0,WUHU216DAVISVP2,2013-01-01 19:06:00,
2013-01-01 11:11:00,48.6,41.0,30.25,West,269,6.0,7.0,75,0.00,,,0.00,478.0,WUHU216DAVISVP2,2013-01-01 19:11:00,
2013-01-01 11:16:00,48.3,40.4,30.24,West,262,2.0,7.0,74,0.00,,,0.00,485.0,WUHU216DAVISVP2,2013-01-01 19:16:00,
2013-01-01 11:21:00,48.6,40.3,30.24,West,272,3.0,7.0,73,0.00,,,0.00,490.0,WUHU216DAVISVP2,2013-01-01 19:21:00,
2013-01-01 11:26:00,48.8,40.3,30.23,WNW,292,3.0,7.0,72,0.00,,,0.00,499.0,WUHU216DAVISVP2,2013-01-01 19:26:00,
2013-01-01 11:31:00,49.2,40.6,30.23,WNW,302,2.0,6.0,72,0.00,,,0.00,504.0,WUHU216DAVISVP2,2013-01-01 19:31:00,
2013-01-01 11:36:00,49.6,40.3,30.22,WNW,302,4.0,6.0,70,0.00,,,0.00,512.0,WUHU216DAVISVP2,2013-01-01 19:36:00,
2013-01-01 11:41:00,49.9,40.2,30.22,WNW,282,2.0,6.0,69,0.00,,,0.00,520.0,WUHU216DAVISVP2,2013-01-01 19:41:00,
2013-01-01 11:46:00,50.4,39.2,30.22,NW,304,2.0,5.0,65,0.00,,,0.00,534.0,WUHU216DAVISVP2,2013-01-01 19:46:00,
2013-01-01 11:51:00,50.9,40.1,30.22,NW,304,2.0,5.0,66,0.00,,,0.00,548.0,WUHU216DAVISVP2,2013-01-01 19:51:00,
2013-01-01 11:56:00,51.5,39.0,30.21,NW,313,3.0,5.0,62,0.00,,,0.00,587.0,WUHU216DAVISVP2,2013-01-01 19:56:00,
2013-01-01 12:01:00,51.9,39.0,30.21,NW,304,2.0,5.0,61,0.00,,,0.00,621.0,WUHU216DAVISVP2,2013-01-01 20:01:00,
2013-01-01 12:06:00,52.2,39.7,30.21,North,5,1.0,5.0,62,0.00,,,0.00,515.0,WUHU216DAVISVP2,2013-01-01 20:06:00,
2013-01-01 12:11:00,52.0,40.3,30.21,NNW,330,2.0,5.0,64,0.00,,,0.00,318.0,WUHU216DAVISVP2,2013-01-01 20:11:00,
2013-01-01 12:15:00,52.1,40.4,30.20,WNW,298,0.0,5.0,64,0.00,,,0.00,327.0,WUHU216DAVISVP2,2013-01-01 20:15:00,
2013-01-01 12:21:00,51.7,40.0,30.20,West,268,2.0,4.0,64,0.00,,,0.00,504.0,WUHU216DAVISVP2,2013-01-01 20:21:00,
2013-01-01 12:26:00,51.6,40.7,30.20,NW,309,1.0,5.0,66,0.00,,,0.00,404.0,WUHU216DAVISVP2,2013-01-01 20:26:00,
2013-01-01 12:31:00,51.7,40.8,30.19,WNW,302,3.0,5.0,66,0.00,,,0.00,592.0,WUHU216DAVISVP2,2013-01-01 20:31:00,
2013-01-01 12:35:00,51.8,40.9,30.19,North,11,4.0,5.0,66,0.00,,,0.00,367.0,WUHU216DAVISVP2,2013-01-01 20:35:00,
2013-01-01 12:40:00,51.6,41.1,30.19,WNW,292,4.0,6.0,67,0.00,,,0.00,339.0,WUHU216DAVISVP2,2013-01-01 20:40:00,
2013-01-01 12:46:00,51.9,41.0,30.18,WNW,300,5.0,7.0,66,0.00,,,0.00,343.0,WUHU216DAVISVP2,2013-01-01 20:46:00,
2013-01-01 12:51:00,52.1,41.1,30.18,NW,314,0.0,7.0,66,0.00,,,0.00,394.0,WUHU216DAVISVP2,2013-01-01 20:51:00,
2013-01-01 12:56:00,52.3,42.0,30.18,WNW,296,5.0,7.0,68,0.00,,,0.00,369.0,WUHU216DAVISVP2,2013-01-01 20:56:00,
2013-01-01 13:01:00,52.1,41.5,30.18,WSW,253,3.0,7.0,67,0.00,,,0.00,322.0,WUHU216DAVISVP2,2013-01-01 21:01:00,
2013-01-01 13:05:00,52.3,41.3,30.18,North,11,3.0,6.0,66,0.00,,,0.00,236.0,WUHU216DAVISVP2,2013-01-01 21:05:00,
2013-01-01 13:10:00,52.2,40.8,30.18,NE,36,4.0,7.0,65,0.00,,,0.00,221.0,WUHU216DAVISVP2,2013-01-01 21:10:00,
2013-01-01 13:15:00,52.0,40.2,30.18,North,5,2.0,7.0,64,0.00,,,0.00,178.0,WUHU216DAVISVP2,2013-01-01 21:15:00,
2013-01-01 13:21:00,52.2,40.8,30.18,NNW,336,2.0,7.0,65,0.00,,,0.00,158.0,WUHU216DAVISVP2,2013-01-01 21:21:00,
2013-01-01 13:26:00,52.6,40.4,30.17,NW,313,1.0,7.0,63,0.00,,,0.00,253.0,WUHU216DAVISVP2,2013-01-01 21:26:00,
2013-01-01 13:31:00,52.9,40.3,30.17,NNW,329,3.0,6.0,62,0.00,,,0.00,397.0,WUHU216DAVISVP2,2013-01-01 21:31:00,
2013-01-01 13:36:00,52.9,40.8,30.18,NNW,329,2.0,6.0,63,0.00,,,0.00,362.0,WUHU216DAVISVP2,2013-01-01 21:36:00,
2013-01-01 13:41:00,53.1,41.0,30.18,WNW,282,2.0,6.0,63,0.00,,,0.00,279.0,WUHU216DAVISVP2,2013-01-01 21:41:00,
2013-01-01 13:45:00,53.1,41.0,30.17,NNW,336,0.0,6.0,63,0.00,,,0.00,218.0,WUHU216DAVISVP2,2013-01-01 21:45:00,
2013-01-01 13:51:00,53.3,41.1,30.17,NNW,332,4.0,5.0,63,0.00,,,0.00,162.0,WUHU216DAVISVP2,2013-01-01 21:51:00,
2013-01-01 13:55:00,53.5,41.3,30.17,NNW,337,1.0,5.0,63,0.00,,,0.00,494.0,WUHU216DAVISVP2,2013-01-01 21:55:00,
2013-01-01 14:01:00,54.1,41.5,30.17,WNW,302,7.0,7.0,62,0.00,,,0.00,487.0,WUHU216DAVISVP2,2013-01-01 22:01:00,
2013-01-01 14:05:00,54.1,41.1,30.17,WNW,297,4.0,7.0,61,0.00,,,0.00,490.0,WUHU216DAVISVP2,2013-01-01 22:05:00,
2013-01-01 14:11:00,54.5,41.4,30.17,NNE,15,6.0,7.0,61,0.00,,,0.00,441.0,WUHU216DAVISVP2,2013-01-01 22:11:00,
2013-01-01 14:16:00,54.6,41.1,30.17,NW,308,5.0,7.0,60,0.00,,,0.00,464.0,WUHU216DAVISVP2,2013-01-01 22:16:00,
2013-01-01 14:21:00,54.2,40.7,30.17,NW,309,3.0,8.0,60,0.00,,,0.00,387.0,WUHU216DAVISVP2,2013-01-01 22:21:00,
2013-01-01 14:25:00,54.5,41.0,30.17,NW,319,5.0,8.0,60,0.00,,,0.00,418.0,WUHU216DAVISVP2,2013-01-01 22:25:00,
2013-01-01 14:31:00,54.7,40.7,30.17,North,355,3.0,8.0,59,0.00,,,0.00,413.0,WUHU216DAVISVP2,2013-01-01 22:31:00,
2013-01-01 14:36:00,54.9,40.9,30.17,NW,309,2.0,7.0,59,0.00,,,0.00,392.0,WUHU216DAVISVP2,2013-01-01 22:36:00,
2013-01-01 14:41:00,55.0,40.5,30.17,NNW,340,3.0,7.0,58,0.00,,,0.00,353.0,WUHU216DAVISVP2,2013-01-01 22:41:00,
2013-01-01 14:46:00,55.1,39.7,30.17,NNW,340,1.0,7.0,56,0.00,,,0.00,309.0,WUHU216DAVISVP2,2013-01-01 22:46:00,
2013-01-01 14:51:00,55.2,39.8,30.17,NW,323,1.0,10.0,56,0.00,,,0.00,279.0,WUHU216DAVISVP2,2013-01-01 22:51:00,
2013-01-01 14:56:00,55.3,40.3,30.17,NNW,329,3.0,10.0,57,0.00,,,0.00,264.0,WUHU216DAVISVP2,2013-01-01 22:56:00,
2013-01-01 15:01:00,55.2,40.2,30.17,NW,324,5.0,10.0,57,0.00,,,0.00,251.0,WUHU216DAVISVP2,2013-01-01 23:01:00,
2013-01-01 15:06:00,54.9,39.9,30.17,NNW,334,6.0,10.0,57,0.00,,,0.00,236.0,WUHU216DAVISVP2,2013-01-01 23:06:00,
2013-01-01 15:11:00,54.8,40.3,30.17,NW,309,4.0,10.0,58,0.00,,,0.00,216.0,WUHU216DAVISVP2,2013-01-01 23:11:00,
2013-01-01 15:16:00,54.7,40.2,30.16,West,273,5.0,10.0,58,0.00,,,0.00,200.0,WUHU216DAVISVP2,2013-01-01 23:16:00,
2013-01-01 15:21:00,54.5,40.0,30.16,WNW,298,7.0,10.0,58,0.00,,,0.00,185.0,WUHU216DAVISVP2,2013-01-01 23:21:00,
2013-01-01 15:26:00,54.6,40.6,30.16,WNW,296,7.0,9.0,59,0.00,,,0.00,169.0,WUHU216DAVISVP2,2013-01-01 23:26:00,
2013-01-01 15:31:00,54.4,40.4,30.17,WNW,294,5.0,9.0,59,0.00,,,0.00,155.0,WUHU216DAVISVP2,2013-01-01 23:31:00,
2013-01-01 15:36:00,54.5,40.9,30.17,WNW,298,4.0,9.0,60,0.00,,,0.00,139.0,WUHU216DAVISVP2,2013-01-01 23:36:00,
2013-01-01 15:41:00,54.5,40.0,30.17,WNW,294,7.0,10.0,58,0.00,,,0.00,123.0,WUHU216DAVISVP2,2013-01-01 23:41:00,
2013-01-01 15:46:00,54.1,39.6,30.17,West,269,6.0,10.0,58,0.00,,,0.00,109.0,WUHU216DAVISVP2,2013-01-01 23:46:00,
2013-01-01 15:51:00,53.9,39.9,30.17,WNW,302,5.0,10.0,59,0.00,,,0.00,95.0,WUHU216DAVISVP2,2013-01-01 23:51:00,
2013-01-01 15:56:00,53.9,39.9,30.17,WNW,288,5.0,10.0,59,0.00,,,0.00,79.0,WUHU216DAVISVP2,2013-01-01 23:56:00,
2013-01-01 16:01:00,54.0,40.5,30.17,NW,307,5.0,11.0,60,0.00,,,0.00,69.0,WUHU216DAVISVP2,2013-01-02 00:01:00,
2013-01-01 16:06:00,54.0,41.0,30.17,WNW,298,4.0,11.0,61,0.00,,,0.00,58.0,WUHU216DAVISVP2,2013-01-02 00:06:00,
2013-01-01 16:11:00,53.9,40.9,30.17,NW,310,7.0,11.0,61,0.00,,,0.00,47.0,WUHU216DAVISVP2,2013-01-02 00:11:00,
2013-01-01 16:16:00,53.7,40.7,30.17,NW,304,5.0,11.0,61,0.00,,,0.00,37.0,WUHU216DAVISVP2,2013-01-02 00:16:00,
2013-01-01 16:21:00,53.5,40.5,30.17,WNW,298,4.0,8.0,61,0.00,,,0.00,30.0,WUHU216DAVISVP2,2013-01-02 00:21:00,
2013-01-01 16:25:00,53.3,40.3,30.17,WNW,293,5.0,8.0,61,0.00,,,0.00,25.0,WUHU216DAVISVP2,2013-01-02 00:25:00,
2013-01-01 16:30:00,53.1,40.1,30.18,NW,304,3.0,8.0,61,0.00,,,0.00,21.0,WUHU216DAVISVP2,2013-01-02 00:30:00,
2013-01-01 16:35:00,52.9,40.3,30.18,NW,311,2.0,8.0,62,0.00,,,0.00,19.0,WUHU216DAVISVP2,2013-01-02 00:35:00,
2013-01-01 16:40:00,52.7,40.2,30.18,NW,311,1.0,7.0,62,0.00,,,0.00,14.0,WUHU216DAVISVP2,2013-01-02 00:40:00,
2013-01-01 16:45:00,52.4,39.9,30.17,WNW,292,1.0,6.0,62,0.00,,,0.00,9.0,WUHU216DAVISVP2,2013-01-02 00:45:00,
2013-01-01 16:50:00,52.0,39.9,30.17,WNW,288,2.0,6.0,63,0.00,,,0.00,7.0,WUHU216DAVISVP2,2013-01-02 00:50:00,
2013-01-01 16:55:00,51.7,40.0,30.18,WNW,288,0.0,4.0,64,0.00,,,0.00,0.0,WUHU216DAVISVP2,2013-01-02 00:55:00,
2013-01-01 17:00:00,51.4,39.7,30.18,WNW,288,2.0,4.0,64,0.00,,,0.00,0.0,WUHU216DAVISVP2,2013-01-02 01:00:00,
2013-01-01 17:05:00,51.0,40.2,30.18,WNW,288,2.0,4.0,66,0.00,,,0.00,0.0,WUHU216DAVISVP2,2013-01-02 01:05:00,
2013-01-01 17:10:00,50.6,40.2,30.19,WNW,288,4.0,4.0,67,0.00,,,0.00,0.0,WUHU216DAVISVP2,2013-01-02 01:10:00,
2013-01-01 17:15:00,50.2,40.2,30.19,NW,309,3.0,6.0,68,0.00,,,0.00,0.0,WUHU216DAVISVP2,2013-01-02 01:15:00,
2013-01-01 17:20:00,49.9,39.8,30.19,WNW,300,4.0,6.0,68,0.00,,,0.00,0.0,WUHU216DAVISVP2,2013-01-02 01:20:00,
2013-01-01 17:25:00,49.7,39.6,30.19,WNW,290,5.0,7.0,68,0.00,,,0.00,0.0,WUHU216DAVISVP2,2013-01-02 01:25:00,
2013-01-01 17:30:00,49.4,39.3,30.19,NW,316,7.0,8.0,68,0.00,,,0.00,0.0,WUHU216DAVISVP2,2013-01-02 01:30:00,
2013-01-01 17:35:00,49.1,39.4,30.19,WNW,291,6.0,8.0,69,0.00,,,0.00,0.0,WUHU216DAVISVP2,2013-01-02 01:35:00,
2013-01-01 17:40:00,48.8,39.4,30.19,WNW,301,5.0,9.0,70,0.00,,,0.00,0.0,WUHU216DAVISVP2,2013-01-02 01:40:00,
2013-01-01 17:45:00,48.5,39.9,30.19,NW,323,7.0,9.0,72,0.00,,,0.00,0.0,WUHU216DAVISVP2,2013-01-02 01:45:00,
2013-01-01 17:50:00,48.2,39.6,30.19,WNW,286,2.0,9.0,72,0.00,,,0.00,0.0,WUHU216DAVISVP2,2013-01-02 01:50:00,
2013-01-01 17:55:00,47.8,40.0,30.19,West,281,6.0,9.0,74,0.00,,,0.00,0.0,WUHU216DAVISVP2,2013-01-02 01:55:00,
2013-01-01 18:00:00,47.4,39.9,30.19,WNW,292,6.0,9.0,75,0.00,,,0.00,0.0,WUHU216DAVISVP2,2013-01-02 02:00:00,
2013-01-01 18:05:00,47.2,40.1,30.20,WNW,298,2.0,8.0,76,0.00,,,0.00,0.0,WUHU216DAVISVP2,2013-01-02 02:05:00,
2013-01-01 18:10:00,46.8,40.0,30.20,WNW,288,2.0,8.0,77,0.00,,,0.00,0.0,WUHU216DAVISVP2,2013-01-02 02:10:00,
2013-01-01 18:15:00,46.5,40.1,30.20,WNW,296,4.0,7.0,78,0.00,,,0.00,0.0,WUHU216DAVISVP2,2013-01-02 02:15:00,
2013-01-01 18:20:00,46.1,39.7,30.20,WNW,293,2.0,7.0,78,0.00,,,0.00,0.0,WUHU216DAVISVP2,2013-01-02 02:20:00,
2013-01-01 18:25:00,45.8,39.7,30.20,WNW,298,4.0,7.0,79,0.00,,,0.00,0.0,WUHU216DAVISVP2,2013-01-02 02:25:00,
2013-01-01 18:30:00,45.6,39.8,30.20,WNW,288,3.0,7.0,80,0.00,,,0.00,0.0,WUHU216DAVISVP2,2013-01-02 02:30:00,
2013-01-01 18:35:00,45.4,39.6,30.20,WNW,286,2.0,6.0,80,0.00,,,0.00,0.0,WUHU216DAVISVP2,2013-01-02 02:35:00,
2013-01-01 18:40:00,45.2,39.7,30.21,WNW,286,1.0,6.0,81,0.00,,,0.00,0.0,WUHU216DAVISVP2,2013-01-02 02:40:00,
2013-01-01 18:45:00,45.0,39.5,30.21,WNW,286,0.0,5.0,81,0.00,,,0.00,0.0,WUHU216DAVISVP2,2013-01-02 02:45:00,
2013-01-01 18:50:00,44.9,39.4,30.21,WNW,286,0.0,4.0,81,0.00,,,0.00,0.0,WUHU216DAVISVP2,2013-01-02 02:50:00,
2013-01-01 18:55:00,44.7,39.2,30.21,WNW,286,0.0,3.0,81,0.00,,,0.00,0.0,WUHU216DAVISVP2,2013-01-02 02:55:00,
2013-01-01 19:00:00,44.7,39.2,30.21,WNW,286,0.0,2.0,81,0.00,,,0.00,0.0,WUHU216DAVISVP2,2013-01-02 03:00:00,
2013-01-01 19:05:00,44.5,39.4,30.21,WNW,286,0.0,2.0,82,0.00,,,0.00,0.0,WUHU216DAVISVP2,2013-01-02 03:05:00,
2013-01-01 19:10:00,44.3,39.2,30.21,WNW,286,0.0,2.0,82,0.00,,,0.00,0.0,WUHU216DAVISVP2,2013-01-02 03:10:00,
2013-01-01 19:15:00,44.2,39.1,30.21,WNW,286,0.0,2.0,82,0.00,,,0.00,0.0,WUHU216DAVISVP2,2013-01-02 03:15:00,
2013-01-01 19:20:00,43.9,39.1,30.22,WNW,286,0.0,2.0,83,0.00,,,0.00,0.0,WUHU216DAVISVP2,2013-01-02 03:20:00,
2013-01-01 19:25:00,43.7,38.9,30.22,WNW,286,1.0,2.0,83,0.00,,,0.00,0.0,WUHU216DAVISVP2,2013-01-02 03:25:00,
2013-01-01 19:30:00,43.5,39.0,30.22,WNW,286,2.0,2.0,84,0.00,,,0.00,0.0,WUHU216DAVISVP2,2013-01-02 03:30:00,
2013-01-01 19:35:00,43.3,38.8,30.22,WNW,286,0.0,3.0,84,0.00,,,0.00,0.0,WUHU216DAVISVP2,2013-01-02 03:35:00,
2013-01-01 19:40:00,43.1,38.9,30.22,WNW,286,0.0,3.0,85,0.00,,,0.00,0.0,WUHU216DAVISVP2,2013-01-02 03:40:00,
2013-01-01 19:45:00,43.1,38.9,30.22,WNW,286,0.0,3.0,85,0.00,,,0.00,0.0,WUHU216DAVISVP2,2013-01-02 03:45:00,
2013-01-01 19:50:00,42.9,38.7,30.22,WNW,286,0.0,3.0,85,0.00,,,0.00,0.0,WUHU216DAVISVP2,2013-01-02 03:50:00,
2013-01-01 19:55:00,42.7,38.5,30.23,WNW,286,0.0,1.0,85,0.00,,,0.00,0.0,WUHU216DAVISVP2,2013-01-02 03:55:00,
2013-01-01 20:00:00,42.6,38.7,30.23,WNW,286,0.0,1.0,86,0.00,,,0.00,0.0,WUHU216DAVISVP2,2013-01-02 04:00:00,
2013-01-01 20:05:00,42.4,38.5,30.23,WNW,286,0.0,1.0,86,0.00,,,0.00,0.0,WUHU216DAVISVP2,2013-01-02 04:05:00,
2013-01-01 20:10:00,42.2,38.3,30.24,WNW,286,1.0,2.0,86,0.00,,,0.00,0.0,WUHU216DAVISVP2,2013-01-02 04:10:00,
2013-01-01 20:15:00,42.0,38.1,30.24,WNW,286,0.0,2.0,86,0.00,,,0.00,0.0,WUHU216DAVISVP2,2013-01-02 04:15:00,
2013-01-01 20:21:00,41.8,38.2,30.24,WNW,286,2.0,3.0,87,0.00,,,0.00,0.0,WUHU216DAVISVP2,2013-01-02 04:21:00,
2013-01-01 20:26:00,41.7,38.1,30.24,WNW,286,2.0,3.0,87,0.00,,,0.00,0.0,WUHU216DAVISVP2,2013-01-02 04:26:00,
2013-01-01 20:31:00,41.6,38.0,30.24,WNW,286,0.0,3.0,87,0.00,,,0.00,0.0,WUHU216DAVISVP2,2013-01-02 04:31:00,
2013-01-01 20:36:00,41.4,38.1,30.24,WNW,286,0.0,3.0,88,0.00,,,0.00,0.0,WUHU216DAVISVP2,2013-01-02 04:36:00,
2013-01-01 20:41:00,41.3,38.0,30.24,WNW,286,1.0,3.0,88,0.00,,,0.00,0.0,WUHU216DAVISVP2,2013-01-02 04:41:00,
2013-01-01 20:46:00,41.2,37.9,30.24,WNW,286,2.0,3.0,88,0.00,,,0.00,0.0,WUHU216DAVISVP2,2013-01-02 04:46:00,
2013-01-01 20:51:00,41.1,37.8,30.24,WNW,286,0.0,3.0,88,0.00,,,0.00,0.0,WUHU216DAVISVP2,2013-01-02 04:51:00,
2013-01-01 20:56:00,40.9,37.9,30.25,WNW,286,0.0,3.0,89,0.00,,,0.00,0.0,WUHU216DAVISVP2,2013-01-02 04:56:00,
2013-01-01 21:00:00,40.7,37.7,30.25,WNW,286,1.0,3.0,89,0.00,,,0.00,0.0,WUHU216DAVISVP2,2013-01-02 05:00:00,
2013-01-01 21:02:00,40.7,37.7,30.25,WNW,286,1.0,3.0,89,0.00,,,0.00,0.0,WUHU216DAVISVP2,2013-01-02 05:02:00,
2013-01-01 21:03:00,40.7,37.7,30.25,WNW,286,1.0,3.0,89,0.00,,,0.00,0.0,WUHU216DAVISVP2,2013-01-02 05:03:00,
2013-01-01 21:08:00,40.5,37.5,30.24,WNW,286,2.0,3.0,89,0.00,,,0.00,0.0,WUHU216DAVISVP2,2013-01-02 05:08:00,
2013-01-01 21:13:00,40.5,37.5,30.24,WNW,286,2.0,3.0,89,0.00,,,0.00,0.0,WUHU216DAVISVP2,2013-01-02 05:13:00,
2013-01-01 21:18:00,40.4,37.4,30.25,WNW,286,0.0,3.0,89,0.00,,,0.00,0.0,WUHU216DAVISVP2,2013-01-02 05:18:00,
2013-01-01 21:23:00,40.2,37.2,30.25,WNW,286,0.0,3.0,89,0.00,,,0.00,0.0,WUHU216DAVISVP2,2013-01-02 05:23:00,
2013-01-01 21:28:00,40.1,37.4,30.25,WNW,286,0.0,3.0,90,0.00,,,0.00,0.0,WUHU216DAVISVP2,2013-01-02 05:28:00,
2013-01-01 21:33:00,40.1,37.4,30.25,WNW,286,0.0,3.0,90,0.00,,,0.00,0.0,WUHU216DAVISVP2,2013-01-02 05:33:00,
2013-01-01 21:38:00,40.0,37.3,30.25,WNW,286,1.0,2.0,90,0.00,,,0.00,0.0,WUHU216DAVISVP2,2013-01-02 05:38:00,
2013-01-01 21:43:00,39.9,37.2,30.25,WNW,286,2.0,2.0,90,0.00,,,0.00,0.0,WUHU216DAVISVP2,2013-01-02 05:43:00,
2013-01-01 21:48:00,39.8,37.1,30.26,WNW,286,3.0,3.0,90,0.00,,,0.00,0.0,WUHU216DAVISVP2,2013-01-02 05:48:00,
2013-01-01 21:53:00,39.7,37.0,30.26,WNW,286,2.0,3.0,90,0.00,,,0.00,0.0,WUHU216DAVISVP2,2013-01-02 05:53:00,
2013-01-01 21:58:00,39.7,37.0,30.26,WNW,286,3.0,4.0,90,0.00,,,0.00,0.0,WUHU216DAVISVP2,2013-01-02 05:58:00,
2013-01-01 22:03:00,39.8,37.1,30.26,WNW,286,3.0,4.0,90,0.00,,,0.00,0.0,WUHU216DAVISVP2,2013-01-02 06:03:00,
2013-01-01 22:08:00,40.0,37.3,30.26,WNW,286,3.0,5.0,90,0.00,,,0.00,0.0,WUHU216DAVISVP2,2013-01-02 06:08:00,
2013-01-01 22:13:00,40.1,37.4,30.26,WNW,286,4.0,5.0,90,0.00,,,0.00,0.0,WUHU216DAVISVP2,2013-01-02 06:13:00,
2013-01-01 22:18:00,40.2,37.5,30.26,WNW,285,4.0,5.0,90,0.00,,,0.00,0.0,WUHU216DAVISVP2,2013-01-02 06:18:00,
2013-01-01 22:23:00,40.2,37.5,30.26,WNW,286,4.0,5.0,90,0.00,,,0.00,0.0,WUHU216DAVISVP2,2013-01-02 06:23:00,
2013-01-01 22:28:00,40.2,37.2,30.26,WNW,286,3.0,5.0,89,0.00,,,0.00,0.0,WUHU216DAVISVP2,2013-01-02 06:28:00,
2013-01-01 22:33:00,40.1,37.1,30.27,WNW,286,2.0,5.0,89,0.00,,,0.00,0.0,WUHU216DAVISVP2,2013-01-02 06:33:00,
2013-01-01 22:38:00,40.0,37.0,30.26,WNW,286,1.0,5.0,89,0.00,,,0.00,0.0,WUHU216DAVISVP2,2013-01-02 06:38:00,
2013-01-01 22:43:00,39.9,36.9,30.26,WNW,286,0.0,5.0,89,0.00,,,0.00,0.0,WUHU216DAVISVP2,2013-01-02 06:43:00,
2013-01-01 22:48:00,39.6,36.3,30.26,WNW,286,0.0,3.0,88,0.00,,,0.00,0.0,WUHU216DAVISVP2,2013-01-02 06:48:00,
2013-01-01 22:53:00,39.2,36.2,30.26,WNW,286,0.0,2.0,89,0.00,,,0.00,0.0,WUHU216DAVISVP2,2013-01-02 06:53:00,
2013-01-01 22:58:00,39.0,36.0,30.26,WNW,286,0.0,0.0,89,0.00,,,0.00,0.0,WUHU216DAVISVP2,2013-01-02 06:58:00,
2013-01-01 23:03:00,38.8,36.1,30.26,WNW,286,0.0,0.0,90,0.00,,,0.00,0.0,WUHU216DAVISVP2,2013-01-02 07:03:00,
2013-01-01 23:08:00,38.4,35.4,30.25,WNW,286,0.0,0.0,89,0.00,,,0.00,0.0,WUHU216DAVISVP2,2013-01-02 07:08:00,
2013-01-01 23:13:00,37.9,34.9,30.25,WNW,286,0.0,0.0,89,0.00,,,0.00,0.0,WUHU216DAVISVP2,2013-01-02 07:13:00,
2013-01-01 23:18:00,37.5,34.8,30.25,WNW,286,0.0,0.0,90,0.00,,,0.00,0.0,WUHU216DAVISVP2,2013-01-02 07:18:00,
2013-01-01 23:23:00,37.0,34.3,30.25,WNW,286,0.0,0.0,90,0.00,,,0.00,0.0,WUHU216DAVISVP2,2013-01-02 07:23:00,
2013-01-01 23:28:00,36.7,34.3,30.25,WNW,286,0.0,1.0,91,0.00,,,0.00,0.0,WUHU216DAVISVP2,2013-01-02 07:28:00,
2013-01-01 23:33:00,36.4,34.0,30.25,WNW,286,1.0,2.0,91,0.00,,,0.00,0.0,WUHU216DAVISVP2,2013-01-02 07:33:00,
2013-01-01 23:38:00,36.4,34.2,30.25,WNW,286,0.0,2.0,92,0.00,,,0.00,0.0,WUHU216DAVISVP2,2013-01-02 07:38:00,
2013-01-01 23:43:00,36.2,34.1,30.25,WNW,286,2.0,4.0,92,0.00,,,0.00,0.0,WUHU216DAVISVP2,2013-01-02 07:43:00,
2013-01-01 23:48:00,36.2,34.3,30.25,WNW,286,1.0,4.0,93,0.00,,,0.00,0.0,WUHU216DAVISVP2,2013-01-02 07:48:00,
2013-01-01 23:53:00,36.1,34.2,30.24,WNW,286,0.0,4.0,93,0.00,,,0.00,0.0,WUHU216DAVISVP2,2013-01-02 07:53:00,
2013-01-01 23:58:00,35.9,34.0,30.25,WNW,286,0.0,4.0,93,0.00,,,0.00,0.0,WUHU216DAVISVP2,2013-01-02 07:58:00,